Phillips, NE (68865)

5:27 AM CST on January 16, 2018 (GMT -0600)
Hall Street | | Change Station
Active Advisory: Wind Chill Advisory

Elev 1844 ft 40.90 °N, 98.21 °W | Updated 41 seconds ago

Clear
Clear
-2.9 °F
Feels Like -3 °F
N
0.0
Wind Variable Wind from North
Gusts 1.3 mph

Today
High -- | Low -- °F
--% Chance of Precip.
Yesterday
High -- | Low -- °F
Precip. -- in
Pressure 30.87 in
Visibility 10.0 miles
Clouds Clear
Windchill -3 °F
Dew Point -9 °F
Humidity 76%
Rainfall 0.00 in
Snow Depth Not available.
7:54 AM 5:30 PM
Waning Crescent, 0% visible
METAR KGRI 161053Z AUTO 31008KT 10SM CLR M19/M23 A3070 RMK AO2 SLP452 T11941228
Pressure 30.87 in
Visibility 10.0 miles
Clouds Clear
Windchill -3 °F
Dew Point -9 °F
Humidity 76%
Rainfall 0.00 in
Snow Depth Not available.
7:54 AM 5:30 PM
Waning Crescent, 0% visible
METAR KGRI 161053Z AUTO 31008KT 10SM CLR M19/M23 A3070 RMK AO2 SLP452 T11941228

Get Your Daily Forecast Email!

Thanks for signing up!

Be on the lookout for a verification email in your inbox.

You'll start receiving severe weather alerts in your inbox..

×

10-Day Weather Forecast

Almanac

Astronomy

Jan. 16, 2018 Rise Set
Actual Time
Civil Twilight
Nautical Twilight
Astronomical Twilight
Moon
Length of Visible Light
Length of Day
Tomorrow will be .
, % of the Moon is Illuminated

Today's Extremes

State Highs State Lows

Community

WunderPhotos

Category 6

Welcome to Category 6. This is the collective home for Weather Underground's featured writeups by Dr. Jeff Masters (right), Bob Henson (left), Chris Burt, and other regular contributors.

Nearby

Air Quality

  Air Quality AQ Index Pollutant
Not available.

Snow Depth

Station Depth Elevation

Earthquake Activity

City Distance Mag. Time & Date
Minimum magnitude displayed is 2.5.

Coastal Water Temperatures

Place Temperature

Stations

Nearby Weather Stations

Station Location Temp. Windchill Dew Point Humidity Wind Precip. Elev Updated Type
                   

Watches & Warnings

Wind Chill Advisory
Issued: 4:10 AM CST Jan. 16, 2018 – National Weather Service

... Wind Chill Advisory remains in effect until noon CST today...

* what... very cold wind chills are expected this morning. These
cold wind chills will cause frostbite in as little as 30 minutes
to areas of exposed skin. Expect wind chills to range from 10
below zero to near 25 below zero at times.

* Where... portions of north central Kansas and central, east
central and south central Nebraska.

* When... until noon CST today.

Precautionary/preparedness actions...

A Wind Chill Advisory means that cold air and the wind will
combine to create low wind chills. Frost bite and hypothermia can
occur if precautions are not taken. Make sure you wear a hat and
gloves.


Rossi